Ince Ege — TCXS2 — position and weather

sailwx.info

Track history (hours):
 
Tides and Currents Weather Stations Pressure Air Temp Water Temp Dewpoint Dewpoint Depression Visibility Wind Speed Wind Dir Waves Ship Positions

Ince Ege

Last reported at 2017-Oct-19 22:57 UTC. Time now 2017-Oct-23 00:37 UTC.
Position N 34°25' E 029°09'.

Length 190 m; draft 13.2 m.

Type: Ship. MMSI: 271040330.

Date/timePositionNaut miles runAvg speedWind from/ knotsBaromVisibWave heightAir tempDewpointWater temp
2017-Oct-19 22:57N 34°25' E 029°09'512.2
2017-Oct-19 22:31N 34°29' E 029°04'612.3
2017-Oct-19 22:01N 34°34' E 028°59'22612.1
2017-Oct-19 03:20N 37°23' E 025°55'411.7
2017-Oct-19 03:01N 37°27' E 025°53'611.4
2017-Oct-19 02:31N 37°32' E 025°50'611.7
2017-Oct-19 01:59N 37°38' E 025°50'611.5
2017-Oct-19 01:30N 37°44' E 025°49'240 8.7
2017-Oct-17 22:01N 40°56' E 028°53'1 7.9
2017-Oct-17 21:57N 40°56' E 028°53'0 0.2
2017-Oct-17 19:58N 40°57' E 028°54'0 0.0
2017-Oct-17 18:46N 40°57' E 028°54'0 0.1
2017-Oct-17 18:28N 40°57' E 028°54'0 0.1
2017-Oct-17 16:09N 40°57' E 028°54'0 2.2
2017-Oct-17 15:59N 40°57' E 028°54'2 3.4
2017-Oct-17 15:30N 40°58' E 028°56'2 3.0
2017-Oct-17 14:53N 40°58' E 028°59'413 8.9
2017-Oct-15 16:44N 45°06' E 036°31'2 4.6
2017-Oct-15 16:18N 45°07' E 036°33'0 0.0
2017-Oct-15 15:43N 45°07' E 036°33'0 0.1
2017-Oct-15 15:25N 45°07' E 036°33'0 0.0
2017-Oct-15 13:13N 45°07' E 036°33'0 0.0
2017-Oct-15 12:58N 45°07' E 036°33'0 0.0
2017-Oct-15 12:25N 45°07' E 036°33'0 0.0
2017-Oct-15 11:55N 45°07' E 036°33'0 0.0
2017-Oct-15 10:22N 45°07' E 036°33'0 0.0
2017-Oct-15 09:58N 45°07' E 036°33'0 0.0
2017-Oct-15 08:46N 45°07' E 036°33'0 0.0
2017-Oct-15 08:16N 45°07' E 036°33'0 0.0
2017-Oct-15 07:58N 45°07' E 036°33'0 0.0
2017-Oct-15 07:28N 45°07' E 036°33'0 0.0
2017-Oct-15 06:49N 45°07' E 036°33'0 0.0
2017-Oct-15 06:16N 45°07' E 036°33'0 0.1
2017-Oct-15 05:58N 45°07' E 036°33'0 0.0
2017-Oct-15 05:28N 45°07' E 036°33'0 0.0
2017-Oct-15 04:55N 45°07' E 036°33'0 0.0
2017-Oct-15 04:22N 45°07' E 036°33'0 0.0
2017-Oct-15 03:58N 45°07' E 036°33'0 0.0
2017-Oct-15 03:28N 45°07' E 036°33'0 0.0
2017-Oct-15 02:55N 45°07' E 036°33'0 0.0
2017-Oct-15 02:22N 45°07' E 036°33'0 0.0
2017-Oct-15 01:58N 45°07' E 036°33'0 0.0
2017-Oct-15 01:28N 45°07' E 036°33'0 0.0
2017-Oct-15 00:58N 45°07' E 036°33'0 0.0
2017-Oct-15 00:28N 45°07' E 036°33'0 0.0
2017-Oct-14 23:49N 45°07' E 036°33'0 0.0
2017-Oct-14 23:25N 45°07' E 036°33'0 0.0
2017-Oct-14 22:34N 45°07' E 036°33'0 0.0
2017-Oct-14 22:28N 45°07' E 036°33'0 0.0
2017-Oct-14 21:16N 45°07' E 036°33'0 0.0
2017-Oct-14 20:58N 45°07' E 036°33'0 0.0
2017-Oct-14 20:19N 45°07' E 036°33'0 0.0
2017-Oct-14 17:22N 45°07' E 036°33'0 0.0
2017-Oct-14 16:04N 45°07' E 036°33'0 0.0
2017-Oct-14 15:46N 45°07' E 036°33'0 0.0
2017-Oct-14 14:10N 45°07' E 036°33'0 0.1
2017-Oct-14 13:58N 45°07' E 036°33'0 0.0
2017-Oct-14 13:28N 45°07' E 036°33'0 0.0
2017-Oct-14 12:58N 45°07' E 036°33'0 0.0
2017-Oct-14 12:28N 45°07' E 036°33'0 0.0
2017-Oct-14 11:58N 45°07' E 036°33'0 0.0
2017-Oct-14 11:28N 45°07' E 036°33'0 0.0
2017-Oct-14 10:34N 45°07' E 036°33'0 0.0
2017-Oct-14 10:28N 45°07' E 036°33'0 0.1
2017-Oct-14 09:52N 45°07' E 036°33'0 0.0
2017-Oct-14 09:16N 45°07' E 036°33'0 0.0
2017-Oct-14 08:58N 45°07' E 036°33'0 0.0
2017-Oct-14 08:28N 45°07' E 036°33'0 0.0
2017-Oct-14 07:52N 45°07' E 036°33'0 0.1
2017-Oct-14 07:28N 45°07' E 036°33'0 0.0
2017-Oct-14 06:58N 45°07' E 036°33'0 0.0
2017-Oct-14 06:25N 45°07' E 036°33'0 0.0
2017-Oct-14 05:58N 45°07' E 036°33'0 0.0
2017-Oct-14 05:28N 45°07' E 036°33'0 0.0
2017-Oct-14 04:58N 45°07' E 036°33'0 0.0
2017-Oct-14 04:28N 45°07' E 036°33'0 0.0
2017-Oct-14 03:16N 45°07' E 036°33'0 0.0
2017-Oct-14 02:58N 45°07' E 036°33'0 0.0
2017-Oct-14 02:28N 45°07' E 036°33'0 0.0
2017-Oct-14 01:28N 45°07' E 036°33'0 0.0
2017-Oct-14 00:55N 45°07' E 036°33'0 0.0
2017-Oct-14 00:28N 45°07' E 036°33'0 0.0
2017-Oct-13 23:58N 45°07' E 036°33'0 0.0
2017-Oct-13 23:25N 45°07' E 036°33'0 0.1
2017-Oct-13 22:10N 45°07' E 036°33'0 0.1
2017-Oct-13 21:55N 45°07' E 036°33'0 0.0
2017-Oct-13 19:34N 45°07' E 036°33'0 0.0
2017-Oct-13 19:28N 45°07' E 036°33'0 0.0
2017-Oct-13 11:04N 45°07' E 036°33'0 0.0
2017-Oct-13 10:52N 45°07' E 036°33'0 0.0
2017-Oct-13 10:28N 45°07' E 036°33'0 0.0
2017-Oct-13 09:13N 45°07' E 036°33'0 0.0
2017-Oct-13 08:40N 45°07' E 036°33'0 0.0
2017-Oct-13 08:13N 45°07' E 036°33'0 0.0
2017-Oct-13 07:58N 45°07' E 036°33'0 0.0
2017-Oct-13 07:28N 45°07' E 036°33'0 0.0
2017-Oct-13 06:16N 45°07' E 036°33'0 0.0
2017-Oct-13 05:49N 45°07' E 036°33'0 0.0
2017-Oct-13 05:19N 45°07' E 036°33'0 0.1
2017-Oct-13 04:58N 45°07' E 036°33'0 0.0
2017-Oct-13 03:37N 45°07' E 036°33'0 0.1
2017-Oct-13 02:46N 45°07' E 036°33'0 0.0
2017-Oct-13 02:22N 45°07' E 036°33'0 0.0
2017-Oct-13 01:58N 45°07' E 036°33'0 0.0
2017-Oct-13 01:25N 45°07' E 036°33'0 0.0
2017-Oct-13 00:43N 45°07' E 036°33'0 0.1
2017-Oct-13 00:28N 45°07' E 036°33'0 0.0
2017-Oct-12 23:52N 45°07' E 036°33'0 0.1
2017-Oct-12 23:28N 45°07' E 036°33'0 0.0
2017-Oct-12 22:01N 45°07' E 036°33'0 0.1
2017-Oct-12 21:58N 45°07' E 036°33'0 0.0
2017-Oct-12 21:19N 45°07' E 036°33'0 0.0
2017-Oct-12 20:01N 45°07' E 036°33'0 0.1
2017-Oct-12 19:55N 45°07' E 036°33'0 0.0
2017-Oct-12 19:25N 45°07' E 036°33'0 0.0
2017-Oct-12 16:01N 45°07' E 036°33'0 0.0
2017-Oct-12 15:10N 45°07' E 036°33'0 0.0
2017-Oct-12 14:46N 45°07' E 036°33'0 0.0
2017-Oct-12 14:28N 45°07' E 036°33'0 0.0
2017-Oct-12 13:58N 45°07' E 036°33'0 0.0
2017-Oct-12 13:28N 45°07' E 036°33'0 0.0
2017-Oct-12 12:58N 45°07' E 036°33'0 0.0
2017-Oct-12 10:52N 45°07' E 036°33'0 0.0
2017-Oct-12 10:28N 45°07' E 036°33'0 0.0
2017-Oct-12 09:55N 45°07' E 036°33'0 0.0
2017-Oct-12 07:19N 45°07' E 036°33'0 0.1
2017-Oct-12 06:55N 45°07' E 036°33'0 0.1
2017-Oct-12 06:19N 45°07' E 036°33'0 0.1
2017-Oct-12 05:58N 45°07' E 036°33'0 0.1
2017-Oct-12 05:28N 45°07' E 036°33'0 0.0
2017-Oct-12 04:58N 45°07' E 036°33'0 0.0
2017-Oct-12 04:28N 45°07' E 036°33'0 0.0
2017-Oct-12 03:58N 45°07' E 036°33'0 0.0
2017-Oct-12 03:25N 45°07' E 036°33'0 0.0
2017-Oct-12 02:22N 45°07' E 036°33'0 0.1
2017-Oct-12 01:55N 45°07' E 036°33'0 0.0
2017-Oct-12 01:28N 45°07' E 036°33'0 0.0
2017-Oct-12 00:34N 45°07' E 036°33'0 0.0
2017-Oct-12 00:25N 45°07' E 036°33'0 0.0
2017-Oct-11 23:58N 45°07' E 036°33'0 0.0
2017-Oct-11 23:28N 45°07' E 036°33'0 0.0
2017-Oct-11 22:49N 45°07' E 036°33'0 0.0
2017-Oct-11 22:28N 45°07' E 036°33'0 0.0
2017-Oct-11 21:58N 45°07' E 036°33'0 0.0
2017-Oct-11 21:25N 45°07' E 036°33'0 0.0
2017-Oct-11 20:43N 45°07' E 036°33'0 0.0
2017-Oct-11 20:25N 45°07' E 036°33'0 0.0
2017-Oct-11 19:58N 45°07' E 036°33'0 0.0
2017-Oct-11 19:28N 45°07' E 036°33'0 0.0
2017-Oct-11 18:58N 45°07' E 036°33'0 0.0
2017-Oct-11 18:13N 45°07' E 036°33'0 0.1
2017-Oct-11 17:58N 45°07' E 036°33'0 0.0
2017-Oct-11 17:28N 45°07' E 036°33'0 0.0
2017-Oct-11 16:58N 45°07' E 036°33'0 0.0
2017-Oct-10 23:58N 45°07' E 036°33'0 0.0
2017-Oct-10 23:28N 45°07' E 036°33'0 0.0
2017-Oct-10 22:34N 45°07' E 036°33'0 0.1
2017-Oct-10 22:28N 45°07' E 036°33'0 0.0
2017-Oct-10 21:55N 45°07' E 036°33'0 0.0
2017-Oct-10 21:28N 45°07' E 036°33'0 0.0
2017-Oct-10 20:58N 45°07' E 036°33'0 0.0
2017-Oct-10 20:28N 45°07' E 036°33'0 0.0
2017-Oct-10 19:58N 45°07' E 036°33'0 0.0
2017-Oct-10 18:46N 45°07' E 036°33'0 0.0
2017-Oct-10 18:28N 45°07' E 036°33'0 0.0
2017-Oct-10 17:58N 45°07' E 036°33'0 0.0
2017-Oct-10 17:28N 45°07' E 036°33'0 0.2
2017-Oct-10 16:58N 45°07' E 036°33'0 0.2
2017-Oct-10 16:28N 45°07' E 036°33'0 0.1
2017-Oct-10 15:58N 45°07' E 036°33'0 0.0
2017-Oct-10 15:07N 45°07' E 036°33'0 0.0
2017-Oct-10 14:58N 45°07' E 036°33'0 0.1
2017-Oct-10 13:22N 45°07' E 036°33'0 0.1
2017-Oct-10 12:52N 45°07' E 036°33'0 0.0
2017-Oct-10 12:28N 45°07' E 036°33'0 0.0
2017-Oct-10 11:58N 45°07' E 036°33'0 0.0
2017-Oct-10 11:28N 45°07' E 036°33'0 0.0
2017-Oct-10 09:49N 45°07' E 036°33'0 0.0
2017-Oct-10 09:22N 45°07' E 036°33'0 0.1
2017-Oct-10 08:58N 45°07' E 036°33'0 0.1
2017-Oct-10 08:28N 45°07' E 036°33'0 0.1
2017-Oct-10 07:58N 45°07' E 036°33'0 0.1
2017-Oct-10 07:25N 45°07' E 036°33'0 0.1
2017-Oct-10 06:58N 45°07' E 036°33'0 0.1
2017-Oct-10 06:28N 45°07' E 036°33'0 0.1
2017-Oct-10 05:58N 45°07' E 036°33'0 0.0
2017-Oct-10 05:28N 45°07' E 036°33'0 0.0
2017-Oct-10 04:55N 45°07' E 036°33'0 0.1
2017-Oct-10 04:28N 45°07' E 036°33'0 0.0
2017-Oct-10 03:58N 45°07' E 036°33'0 0.1
2017-Oct-10 03:25N 45°07' E 036°33'0 0.0
2017-Oct-10 02:58N 45°07' E 036°33'0 0.0
2017-Oct-10 02:25N 45°07' E 036°33'0 0.0
2017-Oct-10 01:46N 45°07' E 036°33'0 0.0
2017-Oct-10 01:25N 45°07' E 036°33'0 0.0
2017-Oct-10 00:58N 45°07' E 036°33'0 0.0
2017-Oct-10 00:25N 45°07' E 036°33'0 0.0
2017-Oct-09 23:19N 45°07' E 036°33'  
Track history (hours):
 
Tides and Currents Weather Stations Pressure Air Temp Water Temp Dewpoint Dewpoint Depression Visibility Wind Speed Wind Dir Waves Ship Positions

Ince Ege

Last reported at 2017-Oct-19 22:57 UTC. Time now 2017-Oct-23 00:37 UTC.
Position N 34°25' E 029°09'.

Length 190 m; draft 13.2 m.

Type: Ship. MMSI: 271040330.

Date/timePositionNaut miles runAvg speedWind from/ knotsBaromVisibWave heightAir tempDewpointWater temp
2017-Oct-19 22:57N 34°25' E 029°09'512.2
2017-Oct-19 22:31N 34°29' E 029°04'612.3
2017-Oct-19 22:01N 34°34' E 028°59'22612.1
2017-Oct-19 03:20N 37°23' E 025°55'411.7
2017-Oct-19 03:01N 37°27' E 025°53'611.4
2017-Oct-19 02:31N 37°32' E 025°50'611.7
2017-Oct-19 01:59N 37°38' E 025°50'611.5
2017-Oct-19 01:30N 37°44' E 025°49'240 8.7
2017-Oct-17 22:01N 40°56' E 028°53'1 7.9
2017-Oct-17 21:57N 40°56' E 028°53'0 0.2
2017-Oct-17 19:58N 40°57' E 028°54'0 0.0
2017-Oct-17 18:46N 40°57' E 028°54'0 0.1
2017-Oct-17 18:28N 40°57' E 028°54'0 0.1
2017-Oct-17 16:09N 40°57' E 028°54'0 2.2
2017-Oct-17 15:59N 40°57' E 028°54'2 3.4
2017-Oct-17 15:30N 40°58' E 028°56'2 3.0
2017-Oct-17 14:53N 40°58' E 028°59'413 8.9
2017-Oct-15 16:44N 45°06' E 036°31'2 4.6
2017-Oct-15 16:18N 45°07' E 036°33'0 0.0
2017-Oct-15 15:43N 45°07' E 036°33'0 0.1
2017-Oct-15 15:25N 45°07' E 036°33'0 0.0
2017-Oct-15 13:13N 45°07' E 036°33'0 0.0
2017-Oct-15 12:58N 45°07' E 036°33'0 0.0
2017-Oct-15 12:25N 45°07' E 036°33'0 0.0
2017-Oct-15 11:55N 45°07' E 036°33'0 0.0
2017-Oct-15 10:22N 45°07' E 036°33'0 0.0
2017-Oct-15 09:58N 45°07' E 036°33'0 0.0
2017-Oct-15 08:46N 45°07' E 036°33'0 0.0
2017-Oct-15 08:16N 45°07' E 036°33'0 0.0
2017-Oct-15 07:58N 45°07' E 036°33'0 0.0
2017-Oct-15 07:28N 45°07' E 036°33'0 0.0
2017-Oct-15 06:49N 45°07' E 036°33'0 0.0
2017-Oct-15 06:16N 45°07' E 036°33'0 0.1
2017-Oct-15 05:58N 45°07' E 036°33'0 0.0
2017-Oct-15 05:28N 45°07' E 036°33'0 0.0
2017-Oct-15 04:55N 45°07' E 036°33'0 0.0
2017-Oct-15 04:22N 45°07' E 036°33'0 0.0
2017-Oct-15 03:58N 45°07' E 036°33'0 0.0
2017-Oct-15 03:28N 45°07' E 036°33'0 0.0
2017-Oct-15 02:55N 45°07' E 036°33'0 0.0
2017-Oct-15 02:22N 45°07' E 036°33'0 0.0
2017-Oct-15 01:58N 45°07' E 036°33'0 0.0
2017-Oct-15 01:28N 45°07' E 036°33'0 0.0
2017-Oct-15 00:58N 45°07' E 036°33'0 0.0
2017-Oct-15 00:28N 45°07' E 036°33'0 0.0
2017-Oct-14 23:49N 45°07' E 036°33'0 0.0
2017-Oct-14 23:25N 45°07' E 036°33'0 0.0
2017-Oct-14 22:34N 45°07' E 036°33'0 0.0
2017-Oct-14 22:28N 45°07' E 036°33'0 0.0
2017-Oct-14 21:16N 45°07' E 036°33'0 0.0
2017-Oct-14 20:58N 45°07' E 036°33'0 0.0
2017-Oct-14 20:19N 45°07' E 036°33'0 0.0
2017-Oct-14 17:22N 45°07' E 036°33'0 0.0
2017-Oct-14 16:04N 45°07' E 036°33'0 0.0
2017-Oct-14 15:46N 45°07' E 036°33'0 0.0
2017-Oct-14 14:10N 45°07' E 036°33'0 0.1
2017-Oct-14 13:58N 45°07' E 036°33'0 0.0
2017-Oct-14 13:28N 45°07' E 036°33'0 0.0
2017-Oct-14 12:58N 45°07' E 036°33'0 0.0
2017-Oct-14 12:28N 45°07' E 036°33'0 0.0
2017-Oct-14 11:58N 45°07' E 036°33'0 0.0
2017-Oct-14 11:28N 45°07' E 036°33'0 0.0
2017-Oct-14 10:34N 45°07' E 036°33'0 0.0
2017-Oct-14 10:28N 45°07' E 036°33'0 0.1
2017-Oct-14 09:52N 45°07' E 036°33'0 0.0
2017-Oct-14 09:16N 45°07' E 036°33'0 0.0
2017-Oct-14 08:58N 45°07' E 036°33'0 0.0
2017-Oct-14 08:28N 45°07' E 036°33'0 0.0
2017-Oct-14 07:52N 45°07' E 036°33'0 0.1
2017-Oct-14 07:28N 45°07' E 036°33'0 0.0
2017-Oct-14 06:58N 45°07' E 036°33'0 0.0
2017-Oct-14 06:25N 45°07' E 036°33'0 0.0
2017-Oct-14 05:58N 45°07' E 036°33'0 0.0
2017-Oct-14 05:28N 45°07' E 036°33'0 0.0
2017-Oct-14 04:58N 45°07' E 036°33'0 0.0
2017-Oct-14 04:28N 45°07' E 036°33'0 0.0
2017-Oct-14 03:16N 45°07' E 036°33'0 0.0
2017-Oct-14 02:58N 45°07' E 036°33'0 0.0
2017-Oct-14 02:28N 45°07' E 036°33'0 0.0
2017-Oct-14 01:28N 45°07' E 036°33'0 0.0
2017-Oct-14 00:55N 45°07' E 036°33'0 0.0
2017-Oct-14 00:28N 45°07' E 036°33'0 0.0
2017-Oct-13 23:58N 45°07' E 036°33'0 0.0
2017-Oct-13 23:25N 45°07' E 036°33'0 0.1
2017-Oct-13 22:10N 45°07' E 036°33'0 0.1
2017-Oct-13 21:55N 45°07' E 036°33'0 0.0
2017-Oct-13 19:34N 45°07' E 036°33'0 0.0
2017-Oct-13 19:28N 45°07' E 036°33'0 0.0
2017-Oct-13 11:04N 45°07' E 036°33'0 0.0
2017-Oct-13 10:52N 45°07' E 036°33'0 0.0
2017-Oct-13 10:28N 45°07' E 036°33'0 0.0
2017-Oct-13 09:13N 45°07' E 036°33'0 0.0
2017-Oct-13 08:40N 45°07' E 036°33'0 0.0
2017-Oct-13 08:13N 45°07' E 036°33'0 0.0
2017-Oct-13 07:58N 45°07' E 036°33'0 0.0
2017-Oct-13 07:28N 45°07' E 036°33'0 0.0
2017-Oct-13 06:16N 45°07' E 036°33'0 0.0
2017-Oct-13 05:49N 45°07' E 036°33'0 0.0
2017-Oct-13 05:19N 45°07' E 036°33'0 0.1
2017-Oct-13 04:58N 45°07' E 036°33'0 0.0
2017-Oct-13 03:37N 45°07' E 036°33'0 0.1
2017-Oct-13 02:46N 45°07' E 036°33'0 0.0
2017-Oct-13 02:22N 45°07' E 036°33'0 0.0
2017-Oct-13 01:58N 45°07' E 036°33'0 0.0
2017-Oct-13 01:25N 45°07' E 036°33'0 0.0
2017-Oct-13 00:43N 45°07' E 036°33'0 0.1
2017-Oct-13 00:28N 45°07' E 036°33'0 0.0
2017-Oct-12 23:52N 45°07' E 036°33'0 0.1
2017-Oct-12 23:28N 45°07' E 036°33'0 0.0
2017-Oct-12 22:01N 45°07' E 036°33'0 0.1
2017-Oct-12 21:58N 45°07' E 036°33'0 0.0
2017-Oct-12 21:19N 45°07' E 036°33'0 0.0
2017-Oct-12 20:01N 45°07' E 036°33'0 0.1
2017-Oct-12 19:55N 45°07' E 036°33'0 0.0
2017-Oct-12 19:25N 45°07' E 036°33'0 0.0
2017-Oct-12 16:01N 45°07' E 036°33'0 0.0
2017-Oct-12 15:10N 45°07' E 036°33'0 0.0
2017-Oct-12 14:46N 45°07' E 036°33'0 0.0
2017-Oct-12 14:28N 45°07' E 036°33'0 0.0
2017-Oct-12 13:58N 45°07' E 036°33'0 0.0
2017-Oct-12 13:28N 45°07' E 036°33'0 0.0
2017-Oct-12 12:58N 45°07' E 036°33'0 0.0
2017-Oct-12 10:52N 45°07' E 036°33'0 0.0
2017-Oct-12 10:28N 45°07' E 036°33'0 0.0
2017-Oct-12 09:55N 45°07' E 036°33'0 0.0
2017-Oct-12 07:19N 45°07' E 036°33'0 0.1
2017-Oct-12 06:55N 45°07' E 036°33'0 0.1
2017-Oct-12 06:19N 45°07' E 036°33'0 0.1
2017-Oct-12 05:58N 45°07' E 036°33'0 0.1
2017-Oct-12 05:28N 45°07' E 036°33'0 0.0
2017-Oct-12 04:58N 45°07' E 036°33'0 0.0
2017-Oct-12 04:28N 45°07' E 036°33'0 0.0
2017-Oct-12 03:58N 45°07' E 036°33'0 0.0
2017-Oct-12 03:25N 45°07' E 036°33'0 0.0
2017-Oct-12 02:22N 45°07' E 036°33'0 0.1
2017-Oct-12 01:55N 45°07' E 036°33'0 0.0
2017-Oct-12 01:28N 45°07' E 036°33'0 0.0
2017-Oct-12 00:34N 45°07' E 036°33'0 0.0
2017-Oct-12 00:25N 45°07' E 036°33'0 0.0
2017-Oct-11 23:58N 45°07' E 036°33'0 0.0
2017-Oct-11 23:28N 45°07' E 036°33'0 0.0
2017-Oct-11 22:49N 45°07' E 036°33'0 0.0
2017-Oct-11 22:28N 45°07' E 036°33'0 0.0
2017-Oct-11 21:58N 45°07' E 036°33'0 0.0
2017-Oct-11 21:25N 45°07' E 036°33'0 0.0
2017-Oct-11 20:43N 45°07' E 036°33'0 0.0
2017-Oct-11 20:25N 45°07' E 036°33'0 0.0
2017-Oct-11 19:58N 45°07' E 036°33'0 0.0
2017-Oct-11 19:28N 45°07' E 036°33'0 0.0
2017-Oct-11 18:58N 45°07' E 036°33'0 0.0
2017-Oct-11 18:13N 45°07' E 036°33'0 0.1
2017-Oct-11 17:58N 45°07' E 036°33'0 0.0
2017-Oct-11 17:28N 45°07' E 036°33'0 0.0
2017-Oct-11 16:58N 45°07' E 036°33'0 0.0
2017-Oct-10 23:58N 45°07' E 036°33'0 0.0
2017-Oct-10 23:28N 45°07' E 036°33'0 0.0
2017-Oct-10 22:34N 45°07' E 036°33'0 0.1
2017-Oct-10 22:28N 45°07' E 036°33'0 0.0
2017-Oct-10 21:55N 45°07' E 036°33'0 0.0
2017-Oct-10 21:28N 45°07' E 036°33'0 0.0
2017-Oct-10 20:58N 45°07' E 036°33'0 0.0
2017-Oct-10 20:28N 45°07' E 036°33'0 0.0
2017-Oct-10 19:58N 45°07' E 036°33'0 0.0
2017-Oct-10 18:46N 45°07' E 036°33'0 0.0
2017-Oct-10 18:28N 45°07' E 036°33'0 0.0
2017-Oct-10 17:58N 45°07' E 036°33'0 0.0
2017-Oct-10 17:28N 45°07' E 036°33'0 0.2
2017-Oct-10 16:58N 45°07' E 036°33'0 0.2
2017-Oct-10 16:28N 45°07' E 036°33'0 0.1
2017-Oct-10 15:58N 45°07' E 036°33'0 0.0
2017-Oct-10 15:07N 45°07' E 036°33'0 0.0
2017-Oct-10 14:58N 45°07' E 036°33'0 0.1
2017-Oct-10 13:22N 45°07' E 036°33'0 0.1
2017-Oct-10 12:52N 45°07' E 036°33'0 0.0
2017-Oct-10 12:28N 45°07' E 036°33'0 0.0
2017-Oct-10 11:58N 45°07' E 036°33'0 0.0
2017-Oct-10 11:28N 45°07' E 036°33'0 0.0
2017-Oct-10 09:49N 45°07' E 036°33'0 0.0
2017-Oct-10 09:22N 45°07' E 036°33'0 0.1
2017-Oct-10 08:58N 45°07' E 036°33'0 0.1
2017-Oct-10 08:28N 45°07' E 036°33'0 0.1
2017-Oct-10 07:58N 45°07' E 036°33'0 0.1
2017-Oct-10 07:25N 45°07' E 036°33'0 0.1
2017-Oct-10 06:58N 45°07' E 036°33'0 0.1
2017-Oct-10 06:28N 45°07' E 036°33'0 0.1
2017-Oct-10 05:58N 45°07' E 036°33'0 0.0
2017-Oct-10 05:28N 45°07' E 036°33'0 0.0
2017-Oct-10 04:55N 45°07' E 036°33'0 0.1
2017-Oct-10 04:28N 45°07' E 036°33'0 0.0
2017-Oct-10 03:58N 45°07' E 036°33'0 0.1
2017-Oct-10 03:25N 45°07' E 036°33'0 0.0
2017-Oct-10 02:58N 45°07' E 036°33'0 0.0
2017-Oct-10 02:25N 45°07' E 036°33'0 0.0
2017-Oct-10 01:46N 45°07' E 036°33'0 0.0
2017-Oct-10 01:25N 45°07' E 036°33'0 0.0
2017-Oct-10 00:58N 45°07' E 036°33'0 0.0
2017-Oct-10 00:25N 45°07' E 036°33'0 0.0
2017-Oct-09 23:19N 45°07' E 036°33'  

Dump ship's entire track history